sensor_id;sensor_type;location;lat;lon;timestamp;P1;durP1;ratioP1;P2;durP2;ratioP2
1715;SDS011;855;48.824;9.220;2022-07-22T00:05:08;13.47;;;7.73;;
1715;SDS011;855;48.824;9.220;2022-07-22T00:07:35;15.20;;;8.90;;
1715;SDS011;855;48.824;9.220;2022-07-22T00:10:07;16.77;;;8.97;;
1715;SDS011;855;48.824;9.220;2022-07-22T00:12:37;14.93;;;7.90;;
1715;SDS011;855;48.824;9.220;2022-07-22T00:15:05;15.93;;;9.57;;
1715;SDS011;855;48.824;9.220;2022-07-22T00:20:57;14.90;;;8.23;;
1715;SDS011;855;48.824;9.220;2022-07-22T00:23:36;15.93;;;9.10;;
1715;SDS011;855;48.824;9.220;2022-07-22T00:26:03;14.63;;;7.70;;
1715;SDS011;855;48.824;9.220;2022-07-22T00:28:31;21.13;;;8.70;;
1715;SDS011;855;48.824;9.220;2022-07-22T00:30:58;18.87;;;8.50;;
1715;SDS011;855;48.824;9.220;2022-07-22T00:33:25;14.77;;;8.30;;
1715;SDS011;855;48.824;9.220;2022-07-22T00:35:52;18.30;;;9.83;;
1715;SDS011;855;48.824;9.220;2022-07-22T00:38:19;17.57;;;7.90;;
1715;SDS011;855;48.824;9.220;2022-07-22T00:40:46;12.87;;;8.60;;
1715;SDS011;855;48.824;9.220;2022-07-22T00:43:12;11.93;;;8.27;;
1715;SDS011;855;48.824;9.220;2022-07-22T00:45:41;16.43;;;8.80;;
1715;SDS011;855;48.824;9.220;2022-07-22T00:51:13;15.27;;;9.60;;
1715;SDS011;855;48.824;9.220;2022-07-22T00:56:06;13.63;;;8.13;;
1715;SDS011;855;48.824;9.220;2022-07-22T00:58:33;14.40;;;8.20;;
1715;SDS011;855;48.824;9.220;2022-07-22T01:01:01;12.10;;;8.20;;
1715;SDS011;855;48.824;9.220;2022-07-22T01:03:28;14.30;;;8.10;;
1715;SDS011;855;48.824;9.220;2022-07-22T01:05:55;12.47;;;8.37;;
1715;SDS011;855;48.824;9.220;2022-07-22T01:16:09;17.20;;;9.10;;
1715;SDS011;855;48.824;9.220;2022-07-22T01:18:38;17.70;;;9.40;;
1715;SDS011;855;48.824;9.220;2022-07-22T01:21:08;16.13;;;9.40;;
1715;SDS011;855;48.824;9.220;2022-07-22T01:23:35;14.50;;;9.20;;
1715;SDS011;855;48.824;9.220;2022-07-22T01:26:03;13.53;;;9.07;;
1715;SDS011;855;48.824;9.220;2022-07-22T01:28:31;14.17;;;9.10;;
1715;SDS011;855;48.824;9.220;2022-07-22T01:30:58;19.93;;;9.43;;
1715;SDS011;855;48.824;9.220;2022-07-22T01:33:26;14.97;;;9.60;;
1715;SDS011;855;48.824;9.220;2022-07-22T01:35:53;15.00;;;9.73;;
1715;SDS011;855;48.824;9.220;2022-07-22T01:38:22;17.80;;;10.17;;
1715;SDS011;855;48.824;9.220;2022-07-22T01:40:49;15.53;;;9.40;;
1715;SDS011;855;48.824;9.220;2022-07-22T01:43:17;17.10;;;10.60;;
1715;SDS011;855;48.824;9.220;2022-07-22T01:45:46;15.63;;;9.73;;
1715;SDS011;855;48.824;9.220;2022-07-22T01:48:16;22.07;;;10.27;;
1715;SDS011;855;48.824;9.220;2022-07-22T01:50:44;16.77;;;10.30;;
1715;SDS011;855;48.824;9.220;2022-07-22T01:53:11;18.37;;;10.60;;
1715;SDS011;855;48.824;9.220;2022-07-22T01:55:40;20.10;;;10.27;;
1715;SDS011;855;48.824;9.220;2022-07-22T01:58:08;16.47;;;9.57;;
1715;SDS011;855;48.824;9.220;2022-07-22T02:00:37;14.00;;;9.70;;
1715;SDS011;855;48.824;9.220;2022-07-22T02:03:04;13.13;;;9.50;;
1715;SDS011;855;48.824;9.220;2022-07-22T02:05:32;15.40;;;8.90;;
1715;SDS011;855;48.824;9.220;2022-07-22T02:08:00;17.70;;;8.30;;
1715;SDS011;855;48.824;9.220;2022-07-22T02:10:28;11.90;;;8.60;;
1715;SDS011;855;48.824;9.220;2022-07-22T02:12:57;17.70;;;10.53;;
1715;SDS011;855;48.824;9.220;2022-07-22T02:15:25;13.00;;;8.77;;
1715;SDS011;855;48.824;9.220;2022-07-22T02:17:52;19.57;;;9.60;;
1715;SDS011;855;48.824;9.220;2022-07-22T02:20:20;12.33;;;9.23;;
1715;SDS011;855;48.824;9.220;2022-07-22T02:22:47;15.50;;;9.70;;
1715;SDS011;855;48.824;9.220;2022-07-22T02:25:14;18.90;;;10.10;;
1715;SDS011;855;48.824;9.220;2022-07-22T02:27:42;14.77;;;9.27;;
1715;SDS011;855;48.824;9.220;2022-07-22T02:30:14;13.00;;;8.30;;
1715;SDS011;855;48.824;9.220;2022-07-22T02:32:41;12.50;;;8.50;;
1715;SDS011;855;48.824;9.220;2022-07-22T02:35:09;17.80;;;10.00;;
1715;SDS011;855;48.824;9.220;2022-07-22T02:37:36;15.23;;;9.83;;
1715;SDS011;855;48.824;9.220;2022-07-22T02:40:04;12.80;;;9.50;;
1715;SDS011;855;48.824;9.220;2022-07-22T02:42:32;18.37;;;11.20;;
1715;SDS011;855;48.824;9.220;2022-07-22T02:45:00;17.40;;;11.17;;
1715;SDS011;855;48.824;9.220;2022-07-22T02:47:28;13.87;;;9.73;;
1715;SDS011;855;48.824;9.220;2022-07-22T02:49:55;14.20;;;9.20;;
1715;SDS011;855;48.824;9.220;2022-07-22T02:55:15;16.60;;;10.60;;
1715;SDS011;855;48.824;9.220;2022-07-22T02:57:43;16.00;;;9.97;;
1715;SDS011;855;48.824;9.220;2022-07-22T03:00:11;18.00;;;10.10;;
1715;SDS011;855;48.824;9.220;2022-07-22T03:02:40;12.97;;;8.90;;
1715;SDS011;855;48.824;9.220;2022-07-22T03:05:07;19.40;;;10.20;;
1715;SDS011;855;48.824;9.220;2022-07-22T03:10:27;17.87;;;9.70;;
1715;SDS011;855;48.824;9.220;2022-07-22T03:19:04;16.47;;;9.47;;
1715;SDS011;855;48.824;9.220;2022-07-22T03:21:32;14.63;;;9.77;;
1715;SDS011;855;48.824;9.220;2022-07-22T03:23:59;14.00;;;9.20;;
1715;SDS011;855;48.824;9.220;2022-07-22T03:26:26;15.00;;;10.80;;
1715;SDS011;855;48.824;9.220;2022-07-22T03:28:53;16.10;;;9.50;;
1715;SDS011;855;48.824;9.220;2022-07-22T03:34:49;13.23;;;8.70;;
1715;SDS011;855;48.824;9.220;2022-07-22T03:37:17;13.60;;;9.37;;
1715;SDS011;855;48.824;9.220;2022-07-22T03:39:44;17.00;;;8.97;;
1715;SDS011;855;48.824;9.220;2022-07-22T03:45:07;15.10;;;8.90;;
1715;SDS011;855;48.824;9.220;2022-07-22T03:47:35;14.80;;;8.70;;
1715;SDS011;855;48.824;9.220;2022-07-22T03:50:04;11.27;;;7.37;;
1715;SDS011;855;48.824;9.220;2022-07-22T03:52:34;15.23;;;9.00;;
1715;SDS011;855;48.824;9.220;2022-07-22T03:55:01;12.53;;;8.77;;
1715;SDS011;855;48.824;9.220;2022-07-22T03:57:28;13.33;;;8.37;;
1715;SDS011;855;48.824;9.220;2022-07-22T03:59:55;13.50;;;8.70;;
1715;SDS011;855;48.824;9.220;2022-07-22T04:02:22;15.47;;;8.93;;
1715;SDS011;855;48.824;9.220;2022-07-22T04:04:49;17.30;;;8.77;;
1715;SDS011;855;48.824;9.220;2022-07-22T04:07:18;12.80;;;8.20;;
1715;SDS011;855;48.824;9.220;2022-07-22T04:09:45;20.33;;;10.13;;
1715;SDS011;855;48.824;9.220;2022-07-22T04:12:12;15.40;;;10.03;;
1715;SDS011;855;48.824;9.220;2022-07-22T04:14:39;19.40;;;10.20;;
1715;SDS011;855;48.824;9.220;2022-07-22T04:17:06;18.23;;;9.90;;
1715;SDS011;855;48.824;9.220;2022-07-22T04:19:34;15.00;;;9.53;;
1715;SDS011;855;48.824;9.220;2022-07-22T04:22:01;21.20;;;10.83;;
1715;SDS011;855;48.824;9.220;2022-07-22T04:24:30;15.23;;;9.60;;
1715;SDS011;855;48.824;9.220;2022-07-22T04:26:57;16.70;;;10.53;;
1715;SDS011;855;48.824;9.220;2022-07-22T04:29:24;17.13;;;11.80;;
1715;SDS011;855;48.824;9.220;2022-07-22T04:31:57;14.40;;;10.37;;
1715;SDS011;855;48.824;9.220;2022-07-22T04:34:25;19.10;;;11.10;;
1715;SDS011;855;48.824;9.220;2022-07-22T04:36:52;16.97;;;11.40;;
1715;SDS011;855;48.824;9.220;2022-07-22T04:39:19;23.30;;;11.93;;
1715;SDS011;855;48.824;9.220;2022-07-22T04:45:10;20.60;;;11.00;;
1715;SDS011;855;48.824;9.220;2022-07-22T04:47:37;22.70;;;11.73;;
1715;SDS011;855;48.824;9.220;2022-07-22T04:50:05;14.60;;;10.30;;
1715;SDS011;855;48.824;9.220;2022-07-22T04:52:33;18.87;;;9.90;;
1715;SDS011;855;48.824;9.220;2022-07-22T04:55:00;17.87;;;9.93;;
1715;SDS011;855;48.824;9.220;2022-07-22T04:57:27;19.43;;;10.57;;
1715;SDS011;855;48.824;9.220;2022-07-22T04:59:54;21.53;;;11.63;;
1715;SDS011;855;48.824;9.220;2022-07-22T05:02:22;14.97;;;10.50;;
1715;SDS011;855;48.824;9.220;2022-07-22T05:04:49;20.43;;;10.80;;
1715;SDS011;855;48.824;9.220;2022-07-22T05:07:15;16.33;;;10.57;;
1715;SDS011;855;48.824;9.220;2022-07-22T05:09:42;15.60;;;9.77;;
1715;SDS011;855;48.824;9.220;2022-07-22T05:12:09;19.13;;;11.93;;
1715;SDS011;855;48.824;9.220;2022-07-22T05:14:36;17.73;;;11.10;;
1715;SDS011;855;48.824;9.220;2022-07-22T05:17:03;17.30;;;10.87;;
1715;SDS011;855;48.824;9.220;2022-07-22T05:19:31;13.90;;;9.73;;
1715;SDS011;855;48.824;9.220;2022-07-22T05:21:58;19.50;;;10.77;;
1715;SDS011;855;48.824;9.220;2022-07-22T05:24:25;15.13;;;10.60;;
1715;SDS011;855;48.824;9.220;2022-07-22T05:26:52;19.43;;;12.23;;
1715;SDS011;855;48.824;9.220;2022-07-22T05:29:19;18.03;;;11.37;;
1715;SDS011;855;48.824;9.220;2022-07-22T05:31:45;20.73;;;12.13;;
1715;SDS011;855;48.824;9.220;2022-07-22T05:34:12;19.37;;;11.37;;
1715;SDS011;855;48.824;9.220;2022-07-22T05:36:40;21.67;;;11.70;;
1715;SDS011;855;48.824;9.220;2022-07-22T05:39:07;16.00;;;10.50;;
1715;SDS011;855;48.824;9.220;2022-07-22T05:41:34;21.93;;;10.80;;
1715;SDS011;855;48.824;9.220;2022-07-22T05:44:02;14.63;;;10.13;;
1715;SDS011;855;48.824;9.220;2022-07-22T05:46:30;19.83;;;11.37;;
1715;SDS011;855;48.824;9.220;2022-07-22T05:48:57;16.40;;;10.70;;
1715;SDS011;855;48.824;9.220;2022-07-22T05:51:24;18.70;;;10.60;;
1715;SDS011;855;48.824;9.220;2022-07-22T05:53:52;15.37;;;9.67;;
1715;SDS011;855;48.824;9.220;2022-07-22T05:56:19;16.17;;;10.00;;
1715;SDS011;855;48.824;9.220;2022-07-22T05:58:45;14.27;;;9.57;;
1715;SDS011;855;48.824;9.220;2022-07-22T06:01:12;19.90;;;9.83;;
1715;SDS011;855;48.824;9.220;2022-07-22T06:03:40;13.57;;;9.50;;
1715;SDS011;855;48.824;9.220;2022-07-22T06:06:07;14.50;;;9.57;;
1715;SDS011;855;48.824;9.220;2022-07-22T06:08:34;14.73;;;10.10;;
1715;SDS011;855;48.824;9.220;2022-07-22T06:11:03;19.00;;;11.23;;
1715;SDS011;855;48.824;9.220;2022-07-22T06:13:30;18.10;;;9.97;;
1715;SDS011;855;48.824;9.220;2022-07-22T06:15:57;19.02;;;11.55;;
1715;SDS011;855;48.824;9.220;2022-07-22T06:18:24;21.67;;;11.80;;
1715;SDS011;855;48.824;9.220;2022-07-22T06:20:51;20.10;;;11.20;;
1715;SDS011;855;48.824;9.220;2022-07-22T06:23:18;24.70;;;10.90;;
1715;SDS011;855;48.824;9.220;2022-07-22T06:25:45;20.33;;;10.50;;
1715;SDS011;855;48.824;9.220;2022-07-22T06:28:13;20.93;;;11.30;;
1715;SDS011;855;48.824;9.220;2022-07-22T06:30:40;19.97;;;11.63;;
1715;SDS011;855;48.824;9.220;2022-07-22T06:33:07;19.43;;;10.13;;
1715;SDS011;855;48.824;9.220;2022-07-22T06:35:35;17.03;;;10.50;;
1715;SDS011;855;48.824;9.220;2022-07-22T06:38:04;15.87;;;10.83;;
1715;SDS011;855;48.824;9.220;2022-07-22T06:40:31;20.10;;;10.50;;
1715;SDS011;855;48.824;9.220;2022-07-22T06:46:23;18.03;;;11.70;;
1715;SDS011;855;48.824;9.220;2022-07-22T06:48:50;19.10;;;10.73;;
1715;SDS011;855;48.824;9.220;2022-07-22T06:51:17;17.33;;;9.97;;
1715;SDS011;855;48.824;9.220;2022-07-22T06:53:43;19.30;;;11.60;;
1715;SDS011;855;48.824;9.220;2022-07-22T06:56:10;18.10;;;10.20;;
1715;SDS011;855;48.824;9.220;2022-07-22T06:58:37;17.10;;;11.03;;
1715;SDS011;855;48.824;9.220;2022-07-22T07:01:04;15.10;;;10.07;;
1715;SDS011;855;48.824;9.220;2022-07-22T07:03:32;17.00;;;10.63;;
1715;SDS011;855;48.824;9.220;2022-07-22T07:05:59;18.57;;;10.50;;
1715;SDS011;855;48.824;9.220;2022-07-22T07:08:27;16.83;;;11.23;;
1715;SDS011;855;48.824;9.220;2022-07-22T07:10:54;22.03;;;11.60;;
1715;SDS011;855;48.824;9.220;2022-07-22T07:13:21;18.30;;;11.40;;
1715;SDS011;855;48.824;9.220;2022-07-22T07:15:48;16.70;;;11.40;;
1715;SDS011;855;48.824;9.220;2022-07-22T07:18:15;16.87;;;10.53;;
1715;SDS011;855;48.824;9.220;2022-07-22T07:20:43;21.20;;;12.27;;
1715;SDS011;855;48.824;9.220;2022-07-22T07:23:10;20.33;;;12.37;;
1715;SDS011;855;48.824;9.220;2022-07-22T07:25:37;19.67;;;11.40;;
1715;SDS011;855;48.824;9.220;2022-07-22T07:28:04;19.13;;;10.37;;
1715;SDS011;855;48.824;9.220;2022-07-22T07:30:31;19.53;;;10.20;;
1715;SDS011;855;48.824;9.220;2022-07-22T07:32:58;17.93;;;10.70;;
1715;SDS011;855;48.824;9.220;2022-07-22T07:35:38;19.87;;;10.87;;
1715;SDS011;855;48.824;9.220;2022-07-22T07:38:07;17.47;;;11.20;;
1715;SDS011;855;48.824;9.220;2022-07-22T07:40:34;17.73;;;10.97;;
1715;SDS011;855;48.824;9.220;2022-07-22T07:43:01;18.77;;;11.80;;
1715;SDS011;855;48.824;9.220;2022-07-22T07:45:27;15.53;;;9.90;;
1715;SDS011;855;48.824;9.220;2022-07-22T07:47:55;13.13;;;9.70;;
1715;SDS011;855;48.824;9.220;2022-07-22T07:50:22;18.00;;;10.30;;
1715;SDS011;855;48.824;9.220;2022-07-22T07:52:49;21.50;;;11.00;;
1715;SDS011;855;48.824;9.220;2022-07-22T07:55:17;14.10;;;10.13;;
1715;SDS011;855;48.824;9.220;2022-07-22T07:57:44;22.47;;;11.00;;
1715;SDS011;855;48.824;9.220;2022-07-22T08:00:14;18.00;;;10.70;;
1715;SDS011;855;48.824;9.220;2022-07-22T08:02:42;18.27;;;10.30;;
1715;SDS011;855;48.824;9.220;2022-07-22T08:05:10;16.30;;;10.13;;
1715;SDS011;855;48.824;9.220;2022-07-22T08:07:37;14.70;;;9.43;;
1715;SDS011;855;48.824;9.220;2022-07-22T08:10:05;22.30;;;10.70;;
1715;SDS011;855;48.824;9.220;2022-07-22T08:12:34;14.53;;;9.70;;
1715;SDS011;855;48.824;9.220;2022-07-22T08:15:01;19.53;;;10.10;;
1715;SDS011;855;48.824;9.220;2022-07-22T08:17:28;20.83;;;10.70;;
1715;SDS011;855;48.824;9.220;2022-07-22T08:20:00;20.10;;;10.20;;
1715;SDS011;855;48.824;9.220;2022-07-22T08:22:27;16.17;;;10.27;;
1715;SDS011;855;48.824;9.220;2022-07-22T08:24:53;18.50;;;10.33;;
1715;SDS011;855;48.824;9.220;2022-07-22T08:27:20;15.10;;;8.97;;
1715;SDS011;855;48.824;9.220;2022-07-22T08:29:49;15.17;;;8.57;;
1715;SDS011;855;48.824;9.220;2022-07-22T08:32:15;17.63;;;8.60;;
1715;SDS011;855;48.824;9.220;2022-07-22T08:34:42;15.57;;;8.30;;
1715;SDS011;855;48.824;9.220;2022-07-22T08:37:09;13.87;;;8.83;;
1715;SDS011;855;48.824;9.220;2022-07-22T08:39:36;16.07;;;8.73;;
1715;SDS011;855;48.824;9.220;2022-07-22T08:42:03;14.53;;;9.60;;
1715;SDS011;855;48.824;9.220;2022-07-22T08:44:31;16.77;;;10.40;;
1715;SDS011;855;48.824;9.220;2022-07-22T08:47:00;17.70;;;10.80;;
1715;SDS011;855;48.824;9.220;2022-07-22T08:49:28;17.00;;;11.07;;
1715;SDS011;855;48.824;9.220;2022-07-22T08:51:55;20.93;;;9.73;;
1715;SDS011;855;48.824;9.220;2022-07-22T08:54:22;18.43;;;10.30;;
1715;SDS011;855;48.824;9.220;2022-07-22T08:56:49;14.30;;;9.70;;
1715;SDS011;855;48.824;9.220;2022-07-22T08:59:18;19.93;;;10.70;;
1715;SDS011;855;48.824;9.220;2022-07-22T09:04:29;15.90;;;9.07;;
1715;SDS011;855;48.824;9.220;2022-07-22T09:06:56;17.83;;;8.80;;
1715;SDS011;855;48.824;9.220;2022-07-22T09:09:28;15.00;;;9.10;;
1715;SDS011;855;48.824;9.220;2022-07-22T09:12:03;11.80;;;8.73;;
1715;SDS011;855;48.824;9.220;2022-07-22T09:14:42;16.30;;;9.30;;
1715;SDS011;855;48.824;9.220;2022-07-22T09:17:28;12.17;;;8.20;;
1715;SDS011;855;48.824;9.220;2022-07-22T09:19:57;11.97;;;8.97;;
1715;SDS011;855;48.824;9.220;2022-07-22T09:22:31;21.60;;;9.50;;
1715;SDS011;855;48.824;9.220;2022-07-22T09:25:01;16.57;;;9.93;;
1715;SDS011;855;48.824;9.220;2022-07-22T09:27:48;16.80;;;9.73;;
1715;SDS011;855;48.824;9.220;2022-07-22T09:30:18;15.37;;;8.90;;
1715;SDS011;855;48.824;9.220;2022-07-22T09:32:48;15.47;;;10.10;;
1715;SDS011;855;48.824;9.220;2022-07-22T09:35:15;12.83;;;9.50;;
1715;SDS011;855;48.824;9.220;2022-07-22T09:37:48;13.33;;;8.90;;
1715;SDS011;855;48.824;9.220;2022-07-22T09:40:17;15.50;;;10.57;;
1715;SDS011;855;48.824;9.220;2022-07-22T09:42:46;11.13;;;7.90;;
1715;SDS011;855;48.824;9.220;2022-07-22T09:45:15;17.83;;;8.20;;
1715;SDS011;855;48.824;9.220;2022-07-22T09:47:42;15.53;;;7.80;;
1715;SDS011;855;48.824;9.220;2022-07-22T09:50:15;13.70;;;8.63;;
1715;SDS011;855;48.824;9.220;2022-07-22T09:52:43;15.10;;;9.70;;
1715;SDS011;855;48.824;9.220;2022-07-22T09:55:10;18.17;;;8.87;;
1715;SDS011;855;48.824;9.220;2022-07-22T09:57:39;11.73;;;8.70;;
1715;SDS011;855;48.824;9.220;2022-07-22T10:00:06;15.37;;;9.30;;
1715;SDS011;855;48.824;9.220;2022-07-22T10:02:35;14.37;;;9.50;;
1715;SDS011;855;48.824;9.220;2022-07-22T10:05:11;24.53;;;9.47;;
1715;SDS011;855;48.824;9.220;2022-07-22T10:07:40;15.40;;;8.43;;
1715;SDS011;855;48.824;9.220;2022-07-22T10:10:08;10.93;;;7.33;;
1715;SDS011;855;48.824;9.220;2022-07-22T10:12:36;10.40;;;8.33;;
1715;SDS011;855;48.824;9.220;2022-07-22T10:15:04;15.93;;;7.90;;
1715;SDS011;855;48.824;9.220;2022-07-22T10:17:33;15.17;;;10.70;;
1715;SDS011;855;48.824;9.220;2022-07-22T10:20:02;15.47;;;8.83;;
1715;SDS011;855;48.824;9.220;2022-07-22T10:22:48;15.03;;;8.30;;
1715;SDS011;855;48.824;9.220;2022-07-22T10:25:20;10.93;;;8.00;;
1715;SDS011;855;48.824;9.220;2022-07-22T10:27:49;17.37;;;8.70;;
1715;SDS011;855;48.824;9.220;2022-07-22T10:30:19;9.40;;;7.60;;
1715;SDS011;855;48.824;9.220;2022-07-22T10:33:00;12.40;;;7.80;;
1715;SDS011;855;48.824;9.220;2022-07-22T10:35:29;11.37;;;7.60;;
1715;SDS011;855;48.824;9.220;2022-07-22T10:38:01;10.23;;;8.03;;
1715;SDS011;855;48.824;9.220;2022-07-22T10:40:31;11.33;;;8.70;;
1715;SDS011;855;48.824;9.220;2022-07-22T10:43:12;13.43;;;8.60;;
1715;SDS011;855;48.824;9.220;2022-07-22T10:45:41;13.30;;;7.60;;
1715;SDS011;855;48.824;9.220;2022-07-22T10:48:13;13.10;;;8.17;;
1715;SDS011;855;48.824;9.220;2022-07-22T10:53:43;11.40;;;7.87;;
1715;SDS011;855;48.824;9.220;2022-07-22T10:56:15;12.70;;;7.83;;
1715;SDS011;855;48.824;9.220;2022-07-22T10:58:51;10.90;;;7.57;;
1715;SDS011;855;48.824;9.220;2022-07-22T11:01:36;11.67;;;8.60;;
1715;SDS011;855;48.824;9.220;2022-07-22T11:04:07;9.60;;;7.83;;
1715;SDS011;855;48.824;9.220;2022-07-22T11:06:39;8.63;;;7.03;;
1715;SDS011;855;48.824;9.220;2022-07-22T11:09:09;10.97;;;8.07;;
1715;SDS011;855;48.824;9.220;2022-07-22T11:11:41;10.30;;;7.63;;
1715;SDS011;855;48.824;9.220;2022-07-22T11:14:13;14.20;;;7.83;;
1715;SDS011;855;48.824;9.220;2022-07-22T11:16:41;14.10;;;8.10;;
1715;SDS011;855;48.824;9.220;2022-07-22T11:19:08;10.77;;;8.10;;
1715;SDS011;855;48.824;9.220;2022-07-22T11:21:35;9.67;;;7.33;;
1715;SDS011;855;48.824;9.220;2022-07-22T11:24:05;12.27;;;8.13;;
1715;SDS011;855;48.824;9.220;2022-07-22T11:26:35;10.90;;;8.30;;
1715;SDS011;855;48.824;9.220;2022-07-22T11:29:05;11.40;;;6.43;;
1715;SDS011;855;48.824;9.220;2022-07-22T11:31:32;10.83;;;7.20;;
1715;SDS011;855;48.824;9.220;2022-07-22T11:34:07;8.90;;;7.50;;
1715;SDS011;855;48.824;9.220;2022-07-22T11:36:37;13.10;;;8.40;;
1715;SDS011;855;48.824;9.220;2022-07-22T11:39:06;16.17;;;7.20;;
1715;SDS011;855;48.824;9.220;2022-07-22T11:41:35;11.60;;;7.17;;
1715;SDS011;855;48.824;9.220;2022-07-22T11:44:02;15.13;;;8.73;;
1715;SDS011;855;48.824;9.220;2022-07-22T11:46:34;13.17;;;7.47;;
1715;SDS011;855;48.824;9.220;2022-07-22T11:49:02;10.73;;;7.50;;
1715;SDS011;855;48.824;9.220;2022-07-22T11:51:30;13.70;;;7.27;;
1715;SDS011;855;48.824;9.220;2022-07-22T11:53:58;17.23;;;7.67;;
1715;SDS011;855;48.824;9.220;2022-07-22T11:56:25;13.17;;;8.13;;
1715;SDS011;855;48.824;9.220;2022-07-22T11:58:54;11.03;;;7.00;;
1715;SDS011;855;48.824;9.220;2022-07-22T12:01:22;11.20;;;8.37;;
1715;SDS011;855;48.824;9.220;2022-07-22T12:03:52;14.53;;;7.93;;
1715;SDS011;855;48.824;9.220;2022-07-22T12:06:21;12.83;;;7.60;;
1715;SDS011;855;48.824;9.220;2022-07-22T12:08:50;9.40;;;7.23;;
1715;SDS011;855;48.824;9.220;2022-07-22T12:11:19;9.07;;;7.57;;
1715;SDS011;855;48.824;9.220;2022-07-22T12:13:49;11.57;;;7.47;;
1715;SDS011;855;48.824;9.220;2022-07-22T12:16:24;10.60;;;7.90;;
1715;SDS011;855;48.824;9.220;2022-07-22T12:18:54;11.97;;;7.90;;
1715;SDS011;855;48.824;9.220;2022-07-22T12:21:23;10.37;;;7.90;;
1715;SDS011;855;48.824;9.220;2022-07-22T12:23:55;13.30;;;7.03;;
1715;SDS011;855;48.824;9.220;2022-07-22T12:26:42;8.80;;;6.50;;
1715;SDS011;855;48.824;9.220;2022-07-22T12:29:15;11.40;;;7.67;;
1715;SDS011;855;48.824;9.220;2022-07-22T12:31:53;13.00;;;7.50;;
1715;SDS011;855;48.824;9.220;2022-07-22T12:34:32;13.43;;;7.70;;
1715;SDS011;855;48.824;9.220;2022-07-22T12:37:11;11.60;;;7.70;;
1715;SDS011;855;48.824;9.220;2022-07-22T12:39:39;9.47;;;7.20;;
1715;SDS011;855;48.824;9.220;2022-07-22T12:42:18;9.77;;;7.53;;
1715;SDS011;855;48.824;9.220;2022-07-22T12:44:52;11.37;;;7.20;;
1715;SDS011;855;48.824;9.220;2022-07-22T12:50:17;8.53;;;6.63;;
1715;SDS011;855;48.824;9.220;2022-07-22T12:52:45;9.00;;;7.20;;
1715;SDS011;855;48.824;9.220;2022-07-22T12:55:12;9.40;;;7.07;;
1715;SDS011;855;48.824;9.220;2022-07-22T12:57:39;11.13;;;7.53;;
1715;SDS011;855;48.824;9.220;2022-07-22T13:00:06;9.20;;;6.13;;
1715;SDS011;855;48.824;9.220;2022-07-22T13:02:35;9.80;;;7.33;;
1715;SDS011;855;48.824;9.220;2022-07-22T13:05:04;9.77;;;6.50;;
1715;SDS011;855;48.824;9.220;2022-07-22T13:07:31;9.67;;;6.80;;
1715;SDS011;855;48.824;9.220;2022-07-22T13:09:58;8.83;;;7.07;;
1715;SDS011;855;48.824;9.220;2022-07-22T13:12:25;9.50;;;7.00;;
1715;SDS011;855;48.824;9.220;2022-07-22T13:14:52;11.03;;;7.50;;
1715;SDS011;855;48.824;9.220;2022-07-22T13:17:18;9.53;;;6.80;;
1715;SDS011;855;48.824;9.220;2022-07-22T13:19:45;8.77;;;6.40;;
1715;SDS011;855;48.824;9.220;2022-07-22T13:22:13;11.63;;;7.33;;
1715;SDS011;855;48.824;9.220;2022-07-22T13:24:40;8.53;;;6.50;;
1715;SDS011;855;48.824;9.220;2022-07-22T13:27:07;13.50;;;7.17;;
1715;SDS011;855;48.824;9.220;2022-07-22T13:29:34;10.33;;;6.63;;
1715;SDS011;855;48.824;9.220;2022-07-22T13:32:01;11.27;;;6.10;;
1715;SDS011;855;48.824;9.220;2022-07-22T13:34:28;7.90;;;6.47;;
1715;SDS011;855;48.824;9.220;2022-07-22T13:36:55;8.73;;;7.03;;
1715;SDS011;855;48.824;9.220;2022-07-22T13:39:24;10.00;;;7.13;;
1715;SDS011;855;48.824;9.220;2022-07-22T13:41:51;9.93;;;6.87;;
1715;SDS011;855;48.824;9.220;2022-07-22T13:44:18;13.70;;;7.80;;
1715;SDS011;855;48.824;9.220;2022-07-22T13:46:45;7.07;;;5.80;;
1715;SDS011;855;48.824;9.220;2022-07-22T13:49:14;7.93;;;6.20;;
1715;SDS011;855;48.824;9.220;2022-07-22T13:51:41;9.50;;;6.27;;
1715;SDS011;855;48.824;9.220;2022-07-22T13:54:07;10.73;;;6.27;;
1715;SDS011;855;48.824;9.220;2022-07-22T13:56:36;8.47;;;5.80;;
1715;SDS011;855;48.824;9.220;2022-07-22T13:59:02;9.73;;;7.90;;
1715;SDS011;855;48.824;9.220;2022-07-22T14:01:29;10.53;;;6.87;;
1715;SDS011;855;48.824;9.220;2022-07-22T14:03:56;10.07;;;6.50;;
1715;SDS011;855;48.824;9.220;2022-07-22T14:06:25;8.60;;;7.17;;
1715;SDS011;855;48.824;9.220;2022-07-22T14:08:52;10.70;;;6.83;;
1715;SDS011;855;48.824;9.220;2022-07-22T14:11:19;11.03;;;7.50;;
1715;SDS011;855;48.824;9.220;2022-07-22T14:13:47;9.03;;;6.30;;
1715;SDS011;855;48.824;9.220;2022-07-22T14:16:14;8.90;;;6.50;;
1715;SDS011;855;48.824;9.220;2022-07-22T14:18:58;8.43;;;6.23;;
1715;SDS011;855;48.824;9.220;2022-07-22T14:21:26;10.37;;;6.30;;
1715;SDS011;855;48.824;9.220;2022-07-22T14:23:53;7.30;;;6.00;;
1715;SDS011;855;48.824;9.220;2022-07-22T14:26:20;8.57;;;6.43;;
1715;SDS011;855;48.824;9.220;2022-07-22T14:28:48;7.77;;;5.80;;
1715;SDS011;855;48.824;9.220;2022-07-22T14:31:16;7.10;;;5.73;;
1715;SDS011;855;48.824;9.220;2022-07-22T14:33:43;8.17;;;6.00;;
1715;SDS011;855;48.824;9.220;2022-07-22T14:36:11;9.80;;;6.30;;
1715;SDS011;855;48.824;9.220;2022-07-22T14:38:38;10.97;;;6.87;;
1715;SDS011;855;48.824;9.220;2022-07-22T14:41:04;8.70;;;6.80;;
1715;SDS011;855;48.824;9.220;2022-07-22T14:43:32;10.90;;;7.30;;
1715;SDS011;855;48.824;9.220;2022-07-22T14:46:00;11.37;;;7.30;;
1715;SDS011;855;48.824;9.220;2022-07-22T14:48:29;10.37;;;6.90;;
1715;SDS011;855;48.824;9.220;2022-07-22T14:50:56;10.30;;;7.43;;
1715;SDS011;855;48.824;9.220;2022-07-22T14:53:23;8.77;;;6.13;;
1715;SDS011;855;48.824;9.220;2022-07-22T14:55:50;9.43;;;6.37;;
1715;SDS011;855;48.824;9.220;2022-07-22T14:58:16;10.00;;;6.50;;
1715;SDS011;855;48.824;9.220;2022-07-22T15:00:44;8.80;;;6.40;;
1715;SDS011;855;48.824;9.220;2022-07-22T15:03:12;8.60;;;6.63;;
1715;SDS011;855;48.824;9.220;2022-07-22T15:05:39;10.37;;;6.00;;
1715;SDS011;855;48.824;9.220;2022-07-22T15:08:07;7.60;;;6.60;;
1715;SDS011;855;48.824;9.220;2022-07-22T15:10:34;7.90;;;5.63;;
1715;SDS011;855;48.824;9.220;2022-07-22T15:13:01;10.90;;;6.97;;
1715;SDS011;855;48.824;9.220;2022-07-22T15:15:28;9.73;;;6.70;;
1715;SDS011;855;48.824;9.220;2022-07-22T15:17:55;8.40;;;6.23;;
1715;SDS011;855;48.824;9.220;2022-07-22T15:20:24;7.93;;;6.33;;
1715;SDS011;855;48.824;9.220;2022-07-22T15:22:51;11.73;;;6.30;;
1715;SDS011;855;48.824;9.220;2022-07-22T15:25:19;10.00;;;6.50;;
1715;SDS011;855;48.824;9.220;2022-07-22T15:27:47;7.63;;;5.77;;
1715;SDS011;855;48.824;9.220;2022-07-22T15:30:14;11.97;;;6.30;;
1715;SDS011;855;48.824;9.220;2022-07-22T15:32:41;7.60;;;5.67;;
1715;SDS011;855;48.824;9.220;2022-07-22T15:35:08;6.40;;;5.70;;
1715;SDS011;855;48.824;9.220;2022-07-22T15:37:38;7.60;;;5.57;;
1715;SDS011;855;48.824;9.220;2022-07-22T15:40:06;7.97;;;6.03;;
1715;SDS011;855;48.824;9.220;2022-07-22T15:42:36;10.10;;;6.33;;
1715;SDS011;855;48.824;9.220;2022-07-22T15:45:03;9.80;;;5.83;;
1715;SDS011;855;48.824;9.220;2022-07-22T15:47:31;6.50;;;5.30;;
1715;SDS011;855;48.824;9.220;2022-07-22T15:49:58;11.80;;;6.33;;
1715;SDS011;855;48.824;9.220;2022-07-22T15:52:25;8.47;;;5.67;;
1715;SDS011;855;48.824;9.220;2022-07-22T15:54:53;8.93;;;6.30;;
1715;SDS011;855;48.824;9.220;2022-07-22T15:57:20;10.43;;;6.53;;
1715;SDS011;855;48.824;9.220;2022-07-22T16:00:05;7.23;;;5.77;;
1715;SDS011;855;48.824;9.220;2022-07-22T16:02:33;10.07;;;5.60;;
1715;SDS011;855;48.824;9.220;2022-07-22T16:05:00;11.17;;;6.00;;
1715;SDS011;855;48.824;9.220;2022-07-22T16:07:27;9.83;;;6.73;;
1715;SDS011;855;48.824;9.220;2022-07-22T16:09:55;8.27;;;5.20;;
1715;SDS011;855;48.824;9.220;2022-07-22T16:12:22;9.33;;;6.10;;
1715;SDS011;855;48.824;9.220;2022-07-22T16:14:50;7.60;;;6.17;;
1715;SDS011;855;48.824;9.220;2022-07-22T16:17:17;6.87;;;4.90;;